sensor_id;sensor_type;location;lat;lon;timestamp;P1;durP1;ratioP1;P2;durP2;ratioP2
29006;SDS011;16104;48.642;9.008;2023-02-11T00:04:00;44.58;;;22.30;;
29006;SDS011;16104;48.642;9.008;2023-02-11T00:08:56;39.63;;;22.48;;
29006;SDS011;16104;48.642;9.008;2023-02-11T00:13:52;42.80;;;22.63;;
29006;SDS011;16104;48.642;9.008;2023-02-11T00:18:48;44.35;;;22.80;;
29006;SDS011;16104;48.642;9.008;2023-02-11T00:23:44;42.00;;;21.80;;
29006;SDS011;16104;48.642;9.008;2023-02-11T00:28:40;41.85;;;22.50;;
29006;SDS011;16104;48.642;9.008;2023-02-11T00:33:36;45.05;;;22.38;;
29006;SDS011;16104;48.642;9.008;2023-02-11T00:38:33;45.50;;;23.67;;
29006;SDS011;16104;48.642;9.008;2023-02-11T00:43:29;38.58;;;20.85;;
29006;SDS011;16104;48.642;9.008;2023-02-11T00:48:24;43.28;;;22.65;;
29006;SDS011;16104;48.642;9.008;2023-02-11T00:53:20;39.67;;;21.73;;
29006;SDS011;16104;48.642;9.008;2023-02-11T00:58:15;43.17;;;22.42;;
29006;SDS011;16104;48.642;9.008;2023-02-11T02:04:16;34.05;;;19.35;;
29006;SDS011;16104;48.642;9.008;2023-02-11T02:09:21;36.22;;;17.98;;
29006;SDS011;16104;48.642;9.008;2023-02-11T02:14:19;38.38;;;20.40;;
29006;SDS011;16104;48.642;9.008;2023-02-11T03:05:05;36.55;;;20.90;;
29006;SDS011;16104;48.642;9.008;2023-02-11T03:10:30;40.60;;;21.33;;
29006;SDS011;16104;48.642;9.008;2023-02-11T03:15:29;41.13;;;21.17;;
29006;SDS011;16104;48.642;9.008;2023-02-11T04:01:09;36.92;;;19.63;;
29006;SDS011;16104;48.642;9.008;2023-02-11T04:06:05;37.25;;;20.17;;
29006;SDS011;16104;48.642;9.008;2023-02-11T04:11:01;36.50;;;20.25;;
29006;SDS011;16104;48.642;9.008;2023-02-11T04:15:56;35.85;;;18.70;;
29006;SDS011;16104;48.642;9.008;2023-02-11T04:20:52;38.45;;;19.70;;
29006;SDS011;16104;48.642;9.008;2023-02-11T04:25:48;36.83;;;20.20;;
29006;SDS011;16104;48.642;9.008;2023-02-11T04:30:44;37.83;;;20.90;;
29006;SDS011;16104;48.642;9.008;2023-02-11T04:35:40;36.00;;;20.75;;
29006;SDS011;16104;48.642;9.008;2023-02-11T04:40:35;34.35;;;18.33;;
29006;SDS011;16104;48.642;9.008;2023-02-11T04:45:31;39.00;;;19.40;;
29006;SDS011;16104;48.642;9.008;2023-02-11T04:50:27;45.78;;;24.83;;
29006;SDS011;16104;48.642;9.008;2023-02-11T04:55:23;37.17;;;21.30;;
29006;SDS011;16104;48.642;9.008;2023-02-11T05:00:18;35.22;;;20.48;;
29006;SDS011;16104;48.642;9.008;2023-02-11T05:05:14;39.38;;;23.40;;
29006;SDS011;16104;48.642;9.008;2023-02-11T05:10:09;36.80;;;21.48;;
29006;SDS011;16104;48.642;9.008;2023-02-11T05:15:05;38.63;;;22.55;;
29006;SDS011;16104;48.642;9.008;2023-02-11T05:20:01;42.15;;;22.73;;
29006;SDS011;16104;48.642;9.008;2023-02-11T05:24:56;35.13;;;20.85;;
29006;SDS011;16104;48.642;9.008;2023-02-11T05:29:52;36.10;;;19.50;;
29006;SDS011;16104;48.642;9.008;2023-02-11T05:34:47;37.40;;;22.20;;
29006;SDS011;16104;48.642;9.008;2023-02-11T05:39:43;35.42;;;20.05;;
29006;SDS011;16104;48.642;9.008;2023-02-11T05:44:38;38.60;;;20.70;;
29006;SDS011;16104;48.642;9.008;2023-02-11T05:49:34;35.88;;;20.67;;
29006;SDS011;16104;48.642;9.008;2023-02-11T05:54:30;42.67;;;21.23;;
29006;SDS011;16104;48.642;9.008;2023-02-11T05:59:25;38.28;;;19.70;;
29006;SDS011;16104;48.642;9.008;2023-02-11T06:04:20;36.25;;;20.27;;
29006;SDS011;16104;48.642;9.008;2023-02-11T06:09:16;36.17;;;18.52;;
29006;SDS011;16104;48.642;9.008;2023-02-11T06:14:12;35.42;;;20.02;;
29006;SDS011;16104;48.642;9.008;2023-02-11T06:19:08;35.33;;;19.83;;
29006;SDS011;16104;48.642;9.008;2023-02-11T06:24:04;35.15;;;19.73;;
29006;SDS011;16104;48.642;9.008;2023-02-11T06:29:00;29.40;;;17.63;;
29006;SDS011;16104;48.642;9.008;2023-02-11T06:33:55;32.78;;;18.70;;
29006;SDS011;16104;48.642;9.008;2023-02-11T06:38:52;35.15;;;19.15;;
29006;SDS011;16104;48.642;9.008;2023-02-11T06:43:49;34.42;;;20.10;;
29006;SDS011;16104;48.642;9.008;2023-02-11T06:48:46;33.60;;;19.08;;
29006;SDS011;16104;48.642;9.008;2023-02-11T06:53:42;37.03;;;21.30;;
29006;SDS011;16104;48.642;9.008;2023-02-11T06:58:39;36.85;;;21.70;;
29006;SDS011;16104;48.642;9.008;2023-02-11T07:03:35;42.42;;;25.13;;
29006;SDS011;16104;48.642;9.008;2023-02-11T07:08:34;34.65;;;19.88;;
29006;SDS011;16104;48.642;9.008;2023-02-11T07:13:30;35.17;;;19.60;;
29006;SDS011;16104;48.642;9.008;2023-02-11T07:18:26;38.95;;;22.10;;
29006;SDS011;16104;48.642;9.008;2023-02-11T07:23:21;59.33;;;30.25;;
29006;SDS011;16104;48.642;9.008;2023-02-11T07:28:17;34.83;;;19.40;;
29006;SDS011;16104;48.642;9.008;2023-02-11T07:33:12;41.80;;;21.60;;
29006;SDS011;16104;48.642;9.008;2023-02-11T07:38:08;49.75;;;26.80;;
29006;SDS011;16104;48.642;9.008;2023-02-11T07:43:03;42.83;;;23.10;;
29006;SDS011;16104;48.642;9.008;2023-02-11T07:47:59;34.42;;;19.33;;
29006;SDS011;16104;48.642;9.008;2023-02-11T07:52:54;34.58;;;19.83;;
29006;SDS011;16104;48.642;9.008;2023-02-11T07:57:50;34.55;;;20.20;;
29006;SDS011;16104;48.642;9.008;2023-02-11T08:02:45;35.15;;;19.50;;
29006;SDS011;16104;48.642;9.008;2023-02-11T08:07:41;33.50;;;18.98;;
29006;SDS011;16104;48.642;9.008;2023-02-11T08:12:36;31.77;;;18.15;;
29006;SDS011;16104;48.642;9.008;2023-02-11T08:17:33;33.53;;;17.77;;
29006;SDS011;16104;48.642;9.008;2023-02-11T08:22:30;29.15;;;17.98;;
29006;SDS011;16104;48.642;9.008;2023-02-11T08:27:26;25.80;;;16.80;;
29006;SDS011;16104;48.642;9.008;2023-02-11T08:32:22;33.65;;;18.45;;
29006;SDS011;16104;48.642;9.008;2023-02-11T08:37:19;32.97;;;19.30;;
29006;SDS011;16104;48.642;9.008;2023-02-11T08:42:14;31.38;;;18.60;;
29006;SDS011;16104;48.642;9.008;2023-02-11T08:47:10;29.13;;;17.92;;
29006;SDS011;16104;48.642;9.008;2023-02-11T08:52:05;29.50;;;17.48;;
29006;SDS011;16104;48.642;9.008;2023-02-11T08:57:01;31.15;;;16.73;;
29006;SDS011;16104;48.642;9.008;2023-02-11T09:01:57;30.58;;;17.73;;
29006;SDS011;16104;48.642;9.008;2023-02-11T09:06:53;28.27;;;16.98;;
29006;SDS011;16104;48.642;9.008;2023-02-11T09:11:48;33.95;;;17.33;;
29006;SDS011;16104;48.642;9.008;2023-02-11T09:16:44;29.10;;;15.20;;
29006;SDS011;16104;48.642;9.008;2023-02-11T09:21:40;29.73;;;16.63;;
29006;SDS011;16104;48.642;9.008;2023-02-11T09:26:36;26.35;;;14.95;;
29006;SDS011;16104;48.642;9.008;2023-02-11T09:31:32;27.15;;;15.07;;
29006;SDS011;16104;48.642;9.008;2023-02-11T09:36:30;25.90;;;14.95;;
29006;SDS011;16104;48.642;9.008;2023-02-11T09:46:59;25.63;;;15.13;;
29006;SDS011;16104;48.642;9.008;2023-02-11T09:52:01;26.55;;;16.92;;
29006;SDS011;16104;48.642;9.008;2023-02-11T09:57:16;28.60;;;16.05;;
29006;SDS011;16104;48.642;9.008;2023-02-11T10:02:14;21.35;;;13.45;;
29006;SDS011;16104;48.642;9.008;2023-02-11T10:17:36;24.13;;;14.25;;
29006;SDS011;16104;48.642;9.008;2023-02-11T10:22:47;21.17;;;13.17;;
29006;SDS011;16104;48.642;9.008;2023-02-11T10:27:45;21.17;;;13.57;;
29006;SDS011;16104;48.642;9.008;2023-02-11T10:37:43;19.95;;;12.50;;
29006;SDS011;16104;48.642;9.008;2023-02-11T10:42:40;18.48;;;11.93;;
29006;SDS011;16104;48.642;9.008;2023-02-11T10:47:38;24.55;;;14.13;;
29006;SDS011;16104;48.642;9.008;2023-02-11T10:52:35;21.70;;;12.95;;
29006;SDS011;16104;48.642;9.008;2023-02-11T10:57:35;21.60;;;12.60;;
29006;SDS011;16104;48.642;9.008;2023-02-11T11:02:33;17.05;;;10.55;;
29006;SDS011;16104;48.642;9.008;2023-02-11T11:07:32;18.60;;;11.50;;
29006;SDS011;16104;48.642;9.008;2023-02-11T11:17:29;15.05;;;9.93;;
29006;SDS011;16104;48.642;9.008;2023-02-11T11:22:25;13.77;;;10.02;;
29006;SDS011;16104;48.642;9.008;2023-02-11T11:27:22;14.02;;;9.55;;
29006;SDS011;16104;48.642;9.008;2023-02-11T11:32:21;14.40;;;9.10;;
29006;SDS011;16104;48.642;9.008;2023-02-11T11:42:23;14.50;;;8.60;;
29006;SDS011;16104;48.642;9.008;2023-02-11T11:47:24;13.93;;;8.35;;
29006;SDS011;16104;48.642;9.008;2023-02-11T11:57:31;11.75;;;8.05;;
29006;SDS011;16104;48.642;9.008;2023-02-11T12:13:26;9.68;;;6.10;;
29006;SDS011;16104;48.642;9.008;2023-02-11T12:29:51;9.40;;;6.43;;
29006;SDS011;16104;48.642;9.008;2023-02-11T12:35:05;10.95;;;6.35;;
29006;SDS011;16104;48.642;9.008;2023-02-11T12:40:25;10.52;;;6.88;;
29006;SDS011;16104;48.642;9.008;2023-02-11T12:45:37;10.32;;;6.63;;
29006;SDS011;16104;48.642;9.008;2023-02-11T12:50:53;11.38;;;7.13;;
29006;SDS011;16104;48.642;9.008;2023-02-11T12:55:56;8.57;;;6.50;;
29006;SDS011;16104;48.642;9.008;2023-02-11T13:01:00;10.07;;;6.85;;
29006;SDS011;16104;48.642;9.008;2023-02-11T13:06:10;7.95;;;5.70;;
29006;SDS011;16104;48.642;9.008;2023-02-11T13:11:12;9.40;;;5.30;;
29006;SDS011;16104;48.642;9.008;2023-02-11T13:21:53;9.27;;;6.07;;
29006;SDS011;16104;48.642;9.008;2023-02-11T13:32:16;8.13;;;5.63;;
29006;SDS011;16104;48.642;9.008;2023-02-11T13:42:20;8.05;;;5.38;;
29006;SDS011;16104;48.642;9.008;2023-02-11T13:47:26;6.47;;;5.03;;
29006;SDS011;16104;48.642;9.008;2023-02-11T13:57:30;5.43;;;4.03;;
29006;SDS011;16104;48.642;9.008;2023-02-11T14:03:15;11.30;;;5.30;;
29006;SDS011;16104;48.642;9.008;2023-02-11T14:08:23;8.00;;;5.30;;
29006;SDS011;16104;48.642;9.008;2023-02-11T14:23:50;8.68;;;5.13;;
29006;SDS011;16104;48.642;9.008;2023-02-11T14:28:51;6.63;;;5.35;;
29006;SDS011;16104;48.642;9.008;2023-02-11T14:34:17;8.98;;;4.90;;
29006;SDS011;16104;48.642;9.008;2023-02-11T14:44:39;9.07;;;5.63;;
29006;SDS011;16104;48.642;9.008;2023-02-11T14:49:37;13.18;;;6.00;;
29006;SDS011;16104;48.642;9.008;2023-02-11T14:54:34;14.45;;;6.18;;
29006;SDS011;16104;48.642;9.008;2023-02-11T14:59:30;10.10;;;7.38;;
29006;SDS011;16104;48.642;9.008;2023-02-11T15:04:29;13.45;;;8.23;;
29006;SDS011;16104;48.642;9.008;2023-02-11T15:09:40;13.02;;;8.18;;
29006;SDS011;16104;48.642;9.008;2023-02-11T15:14:39;13.47;;;8.53;;
29006;SDS011;16104;48.642;9.008;2023-02-11T15:19:43;16.25;;;8.98;;
29006;SDS011;16104;48.642;9.008;2023-02-11T15:24:42;13.35;;;9.20;;
29006;SDS011;16104;48.642;9.008;2023-02-11T15:29:38;15.23;;;9.02;;
29006;SDS011;16104;48.642;9.008;2023-02-11T15:34:36;13.57;;;8.60;;
29006;SDS011;16104;48.642;9.008;2023-02-11T15:39:35;14.77;;;8.70;;
29006;SDS011;16104;48.642;9.008;2023-02-11T15:44:34;15.52;;;8.77;;
29006;SDS011;16104;48.642;9.008;2023-02-11T15:49:32;14.70;;;8.20;;
29006;SDS011;16104;48.642;9.008;2023-02-11T15:54:27;13.45;;;8.30;;
29006;SDS011;16104;48.642;9.008;2023-02-11T15:59:27;13.25;;;8.10;;
29006;SDS011;16104;48.642;9.008;2023-02-11T16:04:34;11.23;;;7.53;;
29006;SDS011;16104;48.642;9.008;2023-02-11T16:09:32;14.23;;;8.48;;
29006;SDS011;16104;48.642;9.008;2023-02-11T16:19:27;16.08;;;10.23;;
29006;SDS011;16104;48.642;9.008;2023-02-11T16:24:25;18.17;;;9.55;;
29006;SDS011;16104;48.642;9.008;2023-02-11T16:29:24;16.43;;;10.07;;
29006;SDS011;16104;48.642;9.008;2023-02-11T16:34:23;17.20;;;10.30;;
29006;SDS011;16104;48.642;9.008;2023-02-11T16:39:19;20.50;;;10.25;;
29006;SDS011;16104;48.642;9.008;2023-02-11T16:44:16;17.02;;;11.20;;
29006;SDS011;16104;48.642;9.008;2023-02-11T16:49:16;19.95;;;13.10;;
29006;SDS011;16104;48.642;9.008;2023-02-11T16:54:16;27.08;;;15.13;;
29006;SDS011;16104;48.642;9.008;2023-02-11T16:59:13;24.38;;;15.57;;
29006;SDS011;16104;48.642;9.008;2023-02-11T17:04:15;18.77;;;12.77;;
29006;SDS011;16104;48.642;9.008;2023-02-11T17:09:24;20.27;;;12.82;;
29006;SDS011;16104;48.642;9.008;2023-02-11T17:19:17;19.52;;;12.90;;
29006;SDS011;16104;48.642;9.008;2023-02-11T17:24:15;22.05;;;15.02;;
29006;SDS011;16104;48.642;9.008;2023-02-11T17:29:14;24.92;;;16.35;;
29006;SDS011;16104;48.642;9.008;2023-02-11T17:34:11;23.50;;;15.63;;
29006;SDS011;16104;48.642;9.008;2023-02-11T17:39:08;24.67;;;15.50;;
29006;SDS011;16104;48.642;9.008;2023-02-11T17:44:04;20.70;;;15.00;;
29006;SDS011;16104;48.642;9.008;2023-02-11T17:49:00;20.70;;;13.90;;
29006;SDS011;16104;48.642;9.008;2023-02-11T17:53:59;25.38;;;16.60;;
29006;SDS011;16104;48.642;9.008;2023-02-11T18:03:52;20.95;;;13.85;;
29006;SDS011;16104;48.642;9.008;2023-02-11T18:08:48;25.98;;;16.63;;
29006;SDS011;16104;48.642;9.008;2023-02-11T18:13:43;28.48;;;18.00;;
29006;SDS011;16104;48.642;9.008;2023-02-11T18:18:39;27.60;;;18.83;;
29006;SDS011;16104;48.642;9.008;2023-02-11T18:23:38;26.70;;;17.65;;
29006;SDS011;16104;48.642;9.008;2023-02-11T18:28:34;27.92;;;18.20;;
29006;SDS011;16104;48.642;9.008;2023-02-11T18:33:30;25.60;;;16.48;;
29006;SDS011;16104;48.642;9.008;2023-02-11T18:38:26;21.60;;;15.13;;
29006;SDS011;16104;48.642;9.008;2023-02-11T18:43:21;23.42;;;13.63;;
29006;SDS011;16104;48.642;9.008;2023-02-11T18:48:18;25.70;;;15.90;;
29006;SDS011;16104;48.642;9.008;2023-02-11T18:53:13;30.15;;;18.42;;
29006;SDS011;16104;48.642;9.008;2023-02-11T18:58:10;28.13;;;17.33;;
29006;SDS011;16104;48.642;9.008;2023-02-11T19:03:05;28.30;;;17.88;;
29006;SDS011;16104;48.642;9.008;2023-02-11T19:08:01;22.85;;;13.82;;
29006;SDS011;16104;48.642;9.008;2023-02-11T19:12:56;30.90;;;17.60;;
29006;SDS011;16104;48.642;9.008;2023-02-11T19:17:55;26.17;;;17.77;;
29006;SDS011;16104;48.642;9.008;2023-02-11T19:22:51;29.30;;;17.80;;
29006;SDS011;16104;48.642;9.008;2023-02-11T19:27:46;28.80;;;19.60;;
29006;SDS011;16104;48.642;9.008;2023-02-11T19:32:41;24.90;;;15.77;;
29006;SDS011;16104;48.642;9.008;2023-02-11T19:37:37;28.13;;;18.92;;
29006;SDS011;16104;48.642;9.008;2023-02-11T19:42:32;26.35;;;16.23;;
29006;SDS011;16104;48.642;9.008;2023-02-11T19:47:28;28.65;;;17.90;;
29006;SDS011;16104;48.642;9.008;2023-02-11T19:52:24;33.53;;;20.10;;
29006;SDS011;16104;48.642;9.008;2023-02-11T19:57:19;27.58;;;17.33;;
29006;SDS011;16104;48.642;9.008;2023-02-11T20:02:18;29.90;;;19.60;;
29006;SDS011;16104;48.642;9.008;2023-02-11T20:07:14;20.08;;;13.63;;
29006;SDS011;16104;48.642;9.008;2023-02-11T20:12:09;28.95;;;19.52;;
29006;SDS011;16104;48.642;9.008;2023-02-11T20:17:05;29.92;;;18.98;;
29006;SDS011;16104;48.642;9.008;2023-02-11T20:22:01;34.85;;;20.50;;
29006;SDS011;16104;48.642;9.008;2023-02-11T20:26:57;34.72;;;21.33;;
29006;SDS011;16104;48.642;9.008;2023-02-11T20:31:52;34.50;;;20.45;;
29006;SDS011;16104;48.642;9.008;2023-02-11T20:36:48;32.65;;;22.25;;
29006;SDS011;16104;48.642;9.008;2023-02-11T20:41:46;35.95;;;22.45;;
29006;SDS011;16104;48.642;9.008;2023-02-11T20:46:43;34.63;;;21.30;;
29006;SDS011;16104;48.642;9.008;2023-02-11T20:51:42;33.40;;;21.33;;
29006;SDS011;16104;48.642;9.008;2023-02-11T20:56:37;37.38;;;22.40;;
29006;SDS011;16104;48.642;9.008;2023-02-11T21:01:34;32.08;;;22.08;;
29006;SDS011;16104;48.642;9.008;2023-02-11T21:06:36;34.63;;;23.17;;
29006;SDS011;16104;48.642;9.008;2023-02-11T21:11:33;35.10;;;23.95;;
29006;SDS011;16104;48.642;9.008;2023-02-11T21:16:29;40.42;;;24.50;;
29006;SDS011;16104;48.642;9.008;2023-02-11T21:21:25;40.30;;;24.27;;
29006;SDS011;16104;48.642;9.008;2023-02-11T21:26:21;39.78;;;27.02;;
29006;SDS011;16104;48.642;9.008;2023-02-11T21:31:18;33.22;;;22.60;;
29006;SDS011;16104;48.642;9.008;2023-02-11T21:36:15;34.20;;;21.88;;
29006;SDS011;16104;48.642;9.008;2023-02-11T21:41:11;30.27;;;19.40;;
29006;SDS011;16104;48.642;9.008;2023-02-11T21:46:08;33.28;;;21.17;;
29006;SDS011;16104;48.642;9.008;2023-02-11T21:51:06;31.80;;;20.48;;
29006;SDS011;16104;48.642;9.008;2023-02-11T22:01:13;34.10;;;22.83;;
29006;SDS011;16104;48.642;9.008;2023-02-11T22:06:12;33.55;;;21.80;;
29006;SDS011;16104;48.642;9.008;2023-02-11T22:11:09;33.88;;;19.77;;
29006;SDS011;16104;48.642;9.008;2023-02-11T22:16:07;30.55;;;19.10;;
29006;SDS011;16104;48.642;9.008;2023-02-11T22:21:06;35.50;;;21.63;;
29006;SDS011;16104;48.642;9.008;2023-02-11T22:26:08;35.28;;;22.08;;
29006;SDS011;16104;48.642;9.008;2023-02-11T22:31:12;40.40;;;23.23;;
29006;SDS011;16104;48.642;9.008;2023-02-11T22:36:19;28.15;;;18.83;;
29006;SDS011;16104;48.642;9.008;2023-02-11T22:41:17;36.25;;;21.27;;
29006;SDS011;16104;48.642;9.008;2023-02-11T22:46:14;27.70;;;17.85;;
29006;SDS011;16104;48.642;9.008;2023-02-11T22:51:12;30.67;;;19.30;;
29006;SDS011;16104;48.642;9.008;2023-02-11T22:56:13;28.30;;;17.65;;
29006;SDS011;16104;48.642;9.008;2023-02-11T23:01:09;34.13;;;22.38;;
29006;SDS011;16104;48.642;9.008;2023-02-11T23:06:05;36.10;;;21.58;;
29006;SDS011;16104;48.642;9.008;2023-02-11T23:11:02;36.25;;;21.45;;
29006;SDS011;16104;48.642;9.008;2023-02-11T23:16:06;39.75;;;22.02;;
29006;SDS011;16104;48.642;9.008;2023-02-11T23:21:04;32.47;;;20.52;;
29006;SDS011;16104;48.642;9.008;2023-02-11T23:26:03;30.23;;;20.05;;
29006;SDS011;16104;48.642;9.008;2023-02-11T23:30:59;41.35;;;23.92;;
29006;SDS011;16104;48.642;9.008;2023-02-11T23:35:54;35.58;;;21.95;;
29006;SDS011;16104;48.642;9.008;2023-02-11T23:40:50;31.17;;;20.27;;
29006;SDS011;16104;48.642;9.008;2023-02-11T23:45:45;30.25;;;18.58;;
29006;SDS011;16104;48.642;9.008;2023-02-11T23:50:41;36.40;;;21.55;;
29006;SDS011;16104;48.642;9.008;2023-02-11T23:55:42;29.08;;;17.58;;
